CYHZ

Halifax / Stanfield International Airport

Code ICAO CYHZ
Code IATA YHZ
Nom Halifax / Stanfield International Airport
Emplacement Halifax, Nova Scotia, CA
Élévation 477 pieds / 145.4 mètres
Latitude 44.88079834
Longitude -63.50859833
METAR CYHZ 232200Z 21008KT 15SM FEW033 FEW220 19/16 A3026 RMK CU1CI1 SLP250 DENSITY ALT 700FT
Informations extras Afficher cartes et CFS
Afficher NOTAMS
Piste Longueur Largeur Surface Élévation
05 10500 ft 200 ft ASP 449 ft
14 7700 ft 200 ft ASP 435 ft
23 10500 ft 200 ft ASP 443 ft
32 7700 ft 200 ft ASP 476 ft